Time;durP1;ratioP1;P1;durP2;ratioP2;P2;SDS_P1;SDS_P2;PMS_P1;PMS_P2;Temp;Humidity;BMP_temperature;BMP_pressure;BME280_temperature;BME280_humidity;BME280_pressure;Samples;Min_cycle;Max_cycle;Signal;HPM_P1;HPM_P2
2024/02/17 00:02:05;;;;;;;7.50;4.70;;;;;;;;;;4978464;28;20046;-79
2024/02/17 00:04:30;;;;;;;3.80;3.22;;;;;;;;;;4990680;28;20042;-79
2024/02/17 00:06:56;;;;;;;6.25;3.72;;;;;;;;;;4966001;28;20125;-79
2024/02/17 00:09:21;;;;;;;3.92;2.63;;;;;;;;;;4977092;28;20390;-78
2024/02/17 00:11:47;;;;;;;4.10;2.92;;;;;;;;;;4973621;28;20046;-79
2024/02/17 00:14:12;;;;;;;2.33;2.13;;;;;;;;;;4975989;28;20038;-80
2024/02/17 00:16:38;;;;;;;4.35;3.17;;;;;;;;;;4963632;28;20058;-79
2024/02/17 00:19:04;;;;;;;2.25;1.73;;;;;;;;;;4963117;28;20510;-79
2024/02/17 00:21:30;;;;;;;5.63;3.90;;;;;;;;;;4968428;28;20055;-79
2024/02/17 00:23:55;;;;;;;3.53;2.75;;;;;;;;;;4975147;28;20339;-80
2024/02/17 00:26:21;;;;;;;3.47;2.58;;;;;;;;;;4952854;28;20049;-80
2024/02/17 00:28:47;;;;;;;4.45;3.53;;;;;;;;;;4977059;28;20044;-79
2024/02/17 00:31:12;;;;;;;5.95;3.20;;;;;;;;;;4978164;28;20050;-79
2024/02/17 00:33:38;;;;;;;4.97;3.17;;;;;;;;;;4978473;28;20034;-79
2024/02/17 00:36:04;;;;;;;5.82;3.83;;;;;;;;;;4977470;28;20046;-79
2024/02/17 00:38:30;;;;;;;2.15;1.88;;;;;;;;;;4964314;28;20057;-78
2024/02/17 00:40:56;;;;;;;1.70;1.60;;;;;;;;;;4962339;28;20046;-78
2024/02/17 00:43:22;;;;;;;5.50;3.60;;;;;;;;;;4965634;28;20129;-79
2024/02/17 00:45:48;;;;;;;4.03;3.15;;;;;;;;;;4987477;28;20058;-78
2024/02/17 00:48:14;;;;;;;3.55;2.38;;;;;;;;;;4965228;28;20488;-80
2024/02/17 00:50:40;;;;;;;3.70;2.53;;;;;;;;;;4985290;28;20057;-79
2024/02/17 00:53:05;;;;;;;4.75;3.45;;;;;;;;;;4978988;28;20038;-80
2024/02/17 00:55:30;;;;;;;6.93;3.35;;;;;;;;;;4979143;28;20044;-79
2024/02/17 00:57:56;;;;;;;3.28;2.47;;;;;;;;;;4968106;28;20494;-81
2024/02/17 01:00:21;;;;;;;6.13;4.28;;;;;;;;;;4977498;28;20034;-79
2024/02/17 01:02:47;;;;;;;4.07;2.90;;;;;;;;;;4990016;28;20052;-79
2024/02/17 01:05:13;;;;;;;6.32;4.10;;;;;;;;;;4977108;28;20106;-80
2024/02/17 01:07:39;;;;;;;5.43;3.47;;;;;;;;;;4977276;28;20142;-79
2024/02/17 01:10:05;;;;;;;5.72;4.63;;;;;;;;;;4975700;28;20474;-79
2024/02/17 01:12:30;;;;;;;5.13;2.65;;;;;;;;;;4963211;28;20070;-80
2024/02/17 01:14:55;;;;;;;3.60;1.92;;;;;;;;;;4982714;28;20066;-79
2024/02/17 01:17:21;;;;;;;3.00;1.77;;;;;;;;;;4971017;28;20030;-79
2024/02/17 01:19:47;;;;;;;7.22;4.22;;;;;;;;;;4983104;28;20038;-80
2024/02/17 01:22:12;;;;;;;6.15;3.80;;;;;;;;;;4992586;28;20038;-79
2024/02/17 01:24:37;;;;;;;1.98;1.63;;;;;;;;;;4987298;28;20045;-79
2024/02/17 01:27:07;;;;;;;3.83;2.28;;;;;;;;;;4983431;28;20030;-79
2024/02/17 01:29:32;;;;;;;3.33;2.22;;;;;;;;;;4989534;28;20458;-80
2024/02/17 01:31:58;;;;;;;5.13;3.38;;;;;;;;;;4974578;28;20046;-79
2024/02/17 01:34:24;;;;;;;4.93;3.50;;;;;;;;;;4983915;28;20042;-79
2024/02/17 01:36:50;;;;;;;6.90;3.67;;;;;;;;;;4983980;28;20539;-79
2024/02/17 01:39:15;;;;;;;4.70;3.22;;;;;;;;;;4971069;28;20043;-80
2024/02/17 01:41:41;;;;;;;6.00;4.15;;;;;;;;;;4986800;28;20050;-80
2024/02/17 01:44:06;;;;;;;4.65;3.05;;;;;;;;;;4987355;28;20038;-79
2024/02/17 01:46:32;;;;;;;4.88;2.72;;;;;;;;;;4988935;28;20411;-79
2024/02/17 01:48:58;;;;;;;7.03;3.33;;;;;;;;;;4980733;28;20041;-79
2024/02/17 01:51:25;;;;;;;5.22;3.00;;;;;;;;;;4983616;28;20038;-80
2024/02/17 01:53:52;;;;;;;5.40;3.85;;;;;;;;;;4971518;28;20046;-80
2024/02/17 01:56:20;;;;;;;2.30;1.75;;;;;;;;;;4975296;28;20049;-80
2024/02/17 01:58:47;;;;;;;2.67;2.00;;;;;;;;;;4981661;28;20039;-80
2024/02/17 02:01:12;;;;;;;4.97;3.05;;;;;;;;;;4977937;28;20046;-80
2024/02/17 02:03:39;;;;;;;7.07;4.38;;;;;;;;;;4979615;28;20057;-79
2024/02/17 02:06:05;;;;;;;7.57;4.35;;;;;;;;;;4923193;28;20117;-79
2024/02/17 02:08:30;;;;;;;7.07;4.30;;;;;;;;;;4978184;28;20537;-80
2024/02/17 02:10:56;;;;;;;6.22;4.18;;;;;;;;;;4978058;28;20109;-79
2024/02/17 02:13:22;;;;;;;5.25;3.58;;;;;;;;;;4992345;28;20070;-80
2024/02/17 02:15:47;;;;;;;8.88;4.55;;;;;;;;;;4977375;28;20088;-78
2024/02/17 02:18:13;;;;;;;8.80;5.05;;;;;;;;;;4982913;28;20038;-80
2024/02/17 02:20:39;;;;;;;6.70;4.53;;;;;;;;;;4977272;28;20045;-80
2024/02/17 02:23:04;;;;;;;6.15;3.75;;;;;;;;;;4969052;28;20041;-79
2024/02/17 02:25:31;;;;;;;6.70;4.45;;;;;;;;;;4967637;28;20046;-79
2024/02/17 02:27:57;;;;;;;4.85;2.75;;;;;;;;;;4974397;28;20173;-80
2024/02/17 02:30:23;;;;;;;8.30;4.75;;;;;;;;;;4979599;28;20042;-79
2024/02/17 02:32:48;;;;;;;8.75;5.20;;;;;;;;;;4971383;28;20398;-80
2024/02/17 02:35:14;;;;;;;7.50;4.43;;;;;;;;;;4977637;28;20034;-79
2024/02/17 02:37:39;;;;;;;7.53;4.65;;;;;;;;;;4956296;28;20041;-80
2024/02/17 02:40:06;;;;;;;9.48;5.32;;;;;;;;;;4983363;28;20061;-80
2024/02/17 02:42:31;;;;;;;4.85;2.88;;;;;;;;;;4978174;28;20077;-78
2024/02/17 02:44:57;;;;;;;7.20;3.92;;;;;;;;;;4952797;28;20050;-79
2024/02/17 02:47:22;;;;;;;8.98;5.00;;;;;;;;;;4973459;28;20058;-78
2024/02/17 02:49:48;;;;;;;8.80;3.78;;;;;;;;;;4954785;28;20039;-78
2024/02/17 02:52:14;;;;;;;9.90;5.38;;;;;;;;;;4955083;28;20426;-78
2024/02/17 02:54:39;;;;;;;6.00;3.88;;;;;;;;;;4961527;28;20096;-78
2024/02/17 02:57:05;;;;;;;8.73;4.88;;;;;;;;;;4967019;28;20563;-78
2024/02/17 02:59:30;;;;;;;10.95;6.10;;;;;;;;;;4965514;28;20050;-79
2024/02/17 03:01:56;;;;;;;3.78;2.53;;;;;;;;;;4964226;28;20046;-80
2024/02/17 03:04:21;;;;;;;11.10;6.22;;;;;;;;;;4970677;28;20035;-78
2024/02/17 03:06:47;;;;;;;9.70;5.70;;;;;;;;;;4954906;28;20519;-78
2024/02/17 03:09:13;;;;;;;7.53;4.32;;;;;;;;;;4965966;28;20038;-78
2024/02/17 03:11:38;;;;;;;9.15;6.13;;;;;;;;;;4962367;28;20046;-78
2024/02/17 03:14:04;;;;;;;8.30;4.97;;;;;;;;;;4968250;28;20026;-79
2024/02/17 03:16:29;;;;;;;9.45;5.30;;;;;;;;;;4962633;28;20046;-77
2024/02/17 03:18:55;;;;;;;12.77;6.47;;;;;;;;;;4967823;28;20038;-78
2024/02/17 03:21:21;;;;;;;12.23;6.80;;;;;;;;;;4958068;28;20101;-80
2024/02/17 03:23:46;;;;;;;13.43;7.20;;;;;;;;;;4971968;28;20058;-78
2024/02/17 03:26:12;;;;;;;13.75;6.65;;;;;;;;;;4971578;28;20034;-78
2024/02/17 03:28:37;;;;;;;12.38;7.18;;;;;;;;;;4960767;28;20503;-77
2024/02/17 03:31:03;;;;;;;10.35;5.95;;;;;;;;;;4967143;28;20080;-78
2024/02/17 03:33:29;;;;;;;7.80;3.85;;;;;;;;;;4965453;28;20133;-77
2024/02/17 03:35:54;;;;;;;14.93;8.00;;;;;;;;;;4974715;28;20037;-78
2024/02/17 03:38:20;;;;;;;14.05;8.10;;;;;;;;;;4963714;28;20039;-78
2024/02/17 03:40:45;;;;;;;11.88;7.28;;;;;;;;;;4955044;28;20805;-78
2024/02/17 03:43:11;;;;;;;11.15;5.50;;;;;;;;;;4957259;28;20046;-77
2024/02/17 03:45:36;;;;;;;14.90;8.35;;;;;;;;;;4965784;28;20040;-78
2024/02/17 03:48:02;;;;;;;13.95;7.28;;;;;;;;;;4952698;28;20516;-77
2024/02/17 03:50:27;;;;;;;16.55;8.75;;;;;;;;;;4971866;28;20035;-77
2024/02/17 03:52:53;;;;;;;13.10;7.40;;;;;;;;;;4969556;28;20523;-78
2024/02/17 03:55:18;;;;;;;13.05;6.50;;;;;;;;;;4970917;28;20478;-78
2024/02/17 03:57:44;;;;;;;12.38;6.53;;;;;;;;;;4969204;28;20050;-79
2024/02/17 04:00:13;;;;;;;12.20;7.57;;;;;;;;;;4953364;28;20406;-78
2024/02/17 04:02:39;;;;;;;9.73;5.15;;;;;;;;;;4977167;28;20110;-78
2024/02/17 04:05:05;;;;;;;10.75;6.40;;;;;;;;;;4974405;28;20152;-79
2024/02/17 04:07:30;;;;;;;11.70;6.75;;;;;;;;;;4980467;28;20046;-78
2024/02/17 04:09:55;;;;;;;10.07;5.72;;;;;;;;;;4972226;28;20507;-77
2024/02/17 04:12:21;;;;;;;9.20;5.32;;;;;;;;;;4975056;28;20109;-79
2024/02/17 04:14:46;;;;;;;12.57;6.90;;;;;;;;;;4978976;28;20038;-78
2024/02/17 04:17:12;;;;;;;5.53;3.65;;;;;;;;;;4933235;28;20034;-79
2024/02/17 04:19:38;;;;;;;10.10;5.40;;;;;;;;;;4969095;28;20077;-80
2024/02/17 04:22:04;;;;;;;11.98;6.97;;;;;;;;;;4973281;28;20101;-79
2024/02/17 04:24:30;;;;;;;10.10;5.78;;;;;;;;;;4971036;28;20125;-79
2024/02/17 04:26:56;;;;;;;8.68;5.10;;;;;;;;;;4974122;28;20136;-79
2024/02/17 04:29:21;;;;;;;11.45;7.10;;;;;;;;;;4971674;28;20035;-79
2024/02/17 04:31:47;;;;;;;7.47;4.05;;;;;;;;;;4971440;28;20656;-79
2024/02/17 04:34:12;;;;;;;9.88;5.35;;;;;;;;;;4968669;28;20085;-79
2024/02/17 04:36:38;;;;;;;11.05;5.47;;;;;;;;;;4947987;28;20050;-78
2024/02/17 04:39:04;;;;;;;14.90;6.10;;;;;;;;;;4947201;28;20098;-79
2024/02/17 04:41:30;;;;;;;8.68;4.70;;;;;;;;;;4962880;28;20081;-78
2024/02/17 04:43:55;;;;;;;7.93;4.68;;;;;;;;;;4969234;28;20503;-79
2024/02/17 04:46:21;;;;;;;10.25;6.22;;;;;;;;;;4968902;28;20395;-78
2024/02/17 04:48:46;;;;;;;9.00;5.30;;;;;;;;;;4965500;28;20046;-79
2024/02/17 04:51:11;;;;;;;6.63;3.92;;;;;;;;;;4964572;28;20027;-78
2024/02/17 04:53:37;;;;;;;14.82;7.18;;;;;;;;;;4968651;28;20042;-78
2024/02/17 04:56:03;;;;;;;12.15;6.78;;;;;;;;;;4973990;28;20431;-78
2024/02/17 04:58:28;;;;;;;9.50;4.82;;;;;;;;;;4952219;28;20121;-78
2024/02/17 05:00:53;;;;;;;10.30;6.50;;;;;;;;;;4962852;28;20489;-78
2024/02/17 05:03:19;;;;;;;5.53;3.75;;;;;;;;;;4949177;28;20057;-78
2024/02/17 05:05:44;;;;;;;10.07;6.45;;;;;;;;;;4944964;28;20057;-78
2024/02/17 05:08:10;;;;;;;12.25;6.03;;;;;;;;;;4973849;28;20046;-79
2024/02/17 05:10:38;;;;;;;8.30;5.32;;;;;;;;;;4969996;28;20046;-78
2024/02/17 05:13:03;;;;;;;11.65;5.80;;;;;;;;;;4962877;28;20038;-79
2024/02/17 05:15:29;;;;;;;9.35;5.10;;;;;;;;;;4960262;28;20089;-79
2024/02/17 05:17:54;;;;;;;12.32;6.25;;;;;;;;;;4969175;28;20073;-79
2024/02/17 05:20:19;;;;;;;7.65;4.18;;;;;;;;;;4947232;28;20130;-79
2024/02/17 05:22:45;;;;;;;5.72;2.72;;;;;;;;;;4954324;28;20470;-79
2024/02/17 05:25:10;;;;;;;6.65;3.63;;;;;;;;;;4955699;28;20118;-78
2024/02/17 05:27:36;;;;;;;11.52;6.20;;;;;;;;;;4973161;28;20039;-78
2024/02/17 05:30:02;;;;;;;12.48;6.32;;;;;;;;;;4956868;28;20038;-79
2024/02/17 05:32:27;;;;;;;11.98;6.80;;;;;;;;;;4972356;28;20038;-79
2024/02/17 05:34:53;;;;;;;14.15;7.30;;;;;;;;;;4981005;28;20133;-79
2024/02/17 05:37:18;;;;;;;10.55;5.28;;;;;;;;;;4977933;28;20049;-79
2024/02/17 05:39:45;;;;;;;11.43;6.20;;;;;;;;;;4953264;28;20042;-79
2024/02/17 05:42:11;;;;;;;11.75;6.97;;;;;;;;;;4977542;28;20041;-78
2024/02/17 05:44:36;;;;;;;13.57;7.35;;;;;;;;;;4974037;28;20042;-78
2024/02/17 05:47:01;;;;;;;6.22;3.30;;;;;;;;;;4967214;28;20066;-79
2024/02/17 05:49:27;;;;;;;13.82;6.60;;;;;;;;;;4942876;28;20122;-77
2024/02/17 05:51:52;;;;;;;13.02;7.18;;;;;;;;;;4967755;28;20042;-79
2024/02/17 05:54:18;;;;;;;11.07;6.00;;;;;;;;;;4962667;28;20038;-78
2024/02/17 05:56:45;;;;;;;12.57;6.63;;;;;;;;;;4945688;28;20039;-78
2024/02/17 05:59:10;;;;;;;11.95;6.43;;;;;;;;;;4971377;28;20140;-79
2024/02/17 06:01:35;;;;;;;16.13;8.15;;;;;;;;;;4972655;28;20788;-79
2024/02/17 06:04:01;;;;;;;8.10;3.45;;;;;;;;;;4972327;28;20840;-79
2024/02/17 06:06:27;;;;;;;13.02;6.80;;;;;;;;;;4975487;28;20038;-80
2024/02/17 06:08:55;;;;;;;7.10;5.00;;;;;;;;;;4971343;28;20121;-78
2024/02/17 06:11:20;;;;;;;14.05;7.50;;;;;;;;;;4956391;28;20046;-78
2024/02/17 06:13:46;;;;;;;12.85;6.00;;;;;;;;;;4977112;28;20042;-78
2024/02/17 06:16:11;;;;;;;14.75;7.60;;;;;;;;;;4956153;28;20042;-78
2024/02/17 06:21:24;;;;;;;12.88;7.57;;;;;;;;;;4967940;28;20140;-78
2024/02/17 06:23:51;;;;;;;16.25;8.60;;;;;;;;;;4976359;28;20491;-79
2024/02/17 06:26:24;;;;;;;17.23;8.88;;;;;;;;;;4945585;28;20119;-79
2024/02/17 06:28:50;;;;;;;14.07;7.03;;;;;;;;;;4967075;28;20484;-78
2024/02/17 06:31:15;;;;;;;11.80;6.15;;;;;;;;;;4969606;28;20057;-77
2024/02/17 06:33:41;;;;;;;15.65;7.35;;;;;;;;;;4974711;28;20123;-78
2024/02/17 06:36:06;;;;;;;16.40;7.82;;;;;;;;;;4976395;28;20118;-79
2024/02/17 06:38:32;;;;;;;19.10;9.65;;;;;;;;;;4975602;28;20491;-79
2024/02/17 06:40:57;;;;;;;17.77;8.82;;;;;;;;;;4969021;28;20040;-78
2024/02/17 06:43:22;;;;;;;13.13;7.28;;;;;;;;;;4962900;28;20038;-80
2024/02/17 06:45:48;;;;;;;11.95;6.25;;;;;;;;;;4973717;28;20046;-80
2024/02/17 06:48:13;;;;;;;18.70;9.88;;;;;;;;;;4976110;28;20463;-81
2024/02/17 06:50:39;;;;;;;14.77;8.50;;;;;;;;;;4971283;28;20043;-79
2024/02/17 06:53:04;;;;;;;16.65;8.40;;;;;;;;;;4957012;28;20066;-79
2024/02/17 06:55:29;;;;;;;21.38;10.13;;;;;;;;;;4966016;28;20039;-81
2024/02/17 06:57:55;;;;;;;17.33;9.05;;;;;;;;;;4962735;28;20051;-77
2024/02/17 07:00:21;;;;;;;18.60;8.90;;;;;;;;;;4972864;28;20034;-79
2024/02/17 07:02:47;;;;;;;11.57;6.22;;;;;;;;;;4974904;28;20046;-79
2024/02/17 07:05:15;;;;;;;17.85;8.15;;;;;;;;;;4946320;28;20043;-80
2024/02/17 07:07:41;;;;;;;14.85;7.18;;;;;;;;;;4976087;28;20038;-80
2024/02/17 07:10:08;;;;;;;19.00;9.02;;;;;;;;;;4980940;28;20049;-79
2024/02/17 07:12:34;;;;;;;17.70;9.30;;;;;;;;;;4970941;28;20034;-79
2024/02/17 07:15:00;;;;;;;14.45;7.53;;;;;;;;;;4976091;28;20104;-80
2024/02/17 07:17:25;;;;;;;11.57;6.80;;;;;;;;;;4967787;28;20030;-80
2024/02/17 07:19:51;;;;;;;14.88;7.65;;;;;;;;;;4983468;28;20049;-79
2024/02/17 07:22:16;;;;;;;12.32;7.20;;;;;;;;;;4989861;28;20057;-81
2024/02/17 07:24:44;;;;;;;14.00;7.93;;;;;;;;;;4964168;28;20073;-81
2024/02/17 07:27:10;;;;;;;16.30;8.38;;;;;;;;;;4990760;28;20030;-78
2024/02/17 07:29:37;;;;;;;14.82;7.38;;;;;;;;;;4983310;28;20068;-80
2024/02/17 07:32:03;;;;;;;20.17;9.70;;;;;;;;;;4954777;28;20048;-80
2024/02/17 07:34:31;;;;;;;13.10;7.28;;;;;;;;;;4952134;28;20543;-80
2024/02/17 07:36:57;;;;;;;15.60;8.00;;;;;;;;;;4971064;28;20045;-80
2024/02/17 07:39:24;;;;;;;14.32;6.65;;;;;;;;;;4977813;28;20069;-78
2024/02/17 07:41:50;;;;;;;16.65;8.35;;;;;;;;;;4972872;28;20635;-79
2024/02/17 07:44:17;;;;;;;24.33;8.40;;;;;;;;;;4971382;28;20034;-79
2024/02/17 07:46:43;;;;;;;17.85;9.32;;;;;;;;;;4976097;28;20117;-78
2024/02/17 07:49:08;;;;;;;15.55;7.88;;;;;;;;;;4979773;28;20072;-78
2024/02/17 07:51:34;;;;;;;10.15;5.18;;;;;;;;;;4974739;28;20042;-79
2024/02/17 07:53:59;;;;;;;15.52;9.13;;;;;;;;;;4988614;28;20042;-79
2024/02/17 07:56:25;;;;;;;12.23;5.82;;;;;;;;;;4980894;28;20039;-79
2024/02/17 07:58:50;;;;;;;12.02;7.07;;;;;;;;;;4985246;28;20141;-79
2024/02/17 08:01:16;;;;;;;13.38;7.40;;;;;;;;;;4988078;28;20030;-78
2024/02/17 08:03:42;;;;;;;17.35;8.65;;;;;;;;;;4970966;28;20250;-79
2024/02/17 08:06:08;;;;;;;16.08;7.88;;;;;;;;;;4978797;28;20133;-79
2024/02/17 08:08:33;;;;;;;13.65;8.07;;;;;;;;;;4970856;28;20046;-78
2024/02/17 08:10:58;;;;;;;15.00;7.35;;;;;;;;;;4962084;28;20505;-80
2024/02/17 08:13:24;;;;;;;10.18;5.63;;;;;;;;;;4986471;28;20034;-79
2024/02/17 08:15:50;;;;;;;10.80;6.18;;;;;;;;;;4972671;28;20042;-79
2024/02/17 08:18:15;;;;;;;12.02;6.93;;;;;;;;;;4965878;28;20061;-79
2024/02/17 08:20:41;;;;;;;11.90;5.45;;;;;;;;;;4973388;28;20039;-79
2024/02/17 08:23:06;;;;;;;5.45;2.70;;;;;;;;;;4987755;28;20037;-79
2024/02/17 08:25:31;;;;;;;10.20;5.88;;;;;;;;;;4986064;28;20569;-78
2024/02/17 08:27:57;;;;;;;15.18;7.80;;;;;;;;;;4982794;28;20047;-78
2024/02/17 08:30:22;;;;;;;12.25;6.72;;;;;;;;;;4982534;28;20102;-78
2024/02/17 08:32:47;;;;;;;11.18;6.07;;;;;;;;;;4972270;28;20168;-79
2024/02/17 08:35:13;;;;;;;13.05;6.97;;;;;;;;;;4956752;28;20046;-78
2024/02/17 08:37:38;;;;;;;13.02;6.97;;;;;;;;;;4948671;28;20038;-78
2024/02/17 08:40:05;;;;;;;13.02;6.28;;;;;;;;;;4966103;28;20045;-79
2024/02/17 08:42:30;;;;;;;9.70;5.05;;;;;;;;;;4972752;28;20052;-79
2024/02/17 08:44:56;;;;;;;15.68;7.03;;;;;;;;;;4976337;28;20038;-79
2024/02/17 08:47:22;;;;;;;9.38;5.43;;;;;;;;;;4965017;28;20513;-79
2024/02/17 08:49:48;;;;;;;12.40;5.75;;;;;;;;;;4962692;28;20128;-78
2024/02/17 08:52:14;;;;;;;14.13;7.55;;;;;;;;;;4972354;28;20030;-79
2024/02/17 08:54:40;;;;;;;4.47;3.00;;;;;;;;;;4954272;28;20045;-79
2024/02/17 08:57:05;;;;;;;12.70;6.60;;;;;;;;;;4978916;28;20038;-79
2024/02/17 08:59:31;;;;;;;8.52;4.22;;;;;;;;;;4976077;28;20134;-79
2024/02/17 09:01:57;;;;;;;6.10;3.33;;;;;;;;;;4975062;28;20141;-77
2024/02/17 09:04:22;;;;;;;9.13;4.55;;;;;;;;;;4967788;28;20083;-79
2024/02/17 09:06:48;;;;;;;6.72;4.15;;;;;;;;;;4984085;28;20038;-79
2024/02/17 09:09:14;;;;;;;14.20;6.80;;;;;;;;;;4952014;28;20037;-79
2024/02/17 09:11:39;;;;;;;6.68;3.78;;;;;;;;;;4975599;28;20038;-78
2024/02/17 09:14:04;;;;;;;8.10;4.78;;;;;;;;;;4988993;28;20105;-78
2024/02/17 09:16:30;;;;;;;9.60;5.03;;;;;;;;;;4971912;28;20162;-78
2024/02/17 09:18:55;;;;;;;12.73;6.63;;;;;;;;;;4973166;28;20042;-79
2024/02/17 09:21:21;;;;;;;8.93;4.43;;;;;;;;;;4976126;28;20034;-79
2024/02/17 09:23:48;;;;;;;13.10;6.35;;;;;;;;;;4972713;28;20074;-78
2024/02/17 09:26:13;;;;;;;13.93;6.38;;;;;;;;;;4977004;28;20042;-79
2024/02/17 09:28:39;;;;;;;7.55;3.15;;;;;;;;;;4988678;28;20282;-79
2024/02/17 09:31:04;;;;;;;11.50;5.68;;;;;;;;;;4985402;28;20531;-77
2024/02/17 09:33:30;;;;;;;11.90;6.18;;;;;;;;;;4987051;28;20046;-78
2024/02/17 09:35:56;;;;;;;9.85;5.20;;;;;;;;;;4960447;28;20065;-78
2024/02/17 09:38:22;;;;;;;10.02;5.65;;;;;;;;;;4987375;28;20031;-78
2024/02/17 09:40:48;;;;;;;7.13;3.53;;;;;;;;;;4981324;28;20052;-78
2024/02/17 09:43:14;;;;;;;7.65;4.47;;;;;;;;;;4961463;28;20039;-78
2024/02/17 09:45:40;;;;;;;8.82;4.95;;;;;;;;;;4975170;28;20078;-78
2024/02/17 09:48:06;;;;;;;12.30;5.93;;;;;;;;;;4963577;28;20126;-78
2024/02/17 09:50:32;;;;;;;9.65;4.78;;;;;;;;;;4971387;28;20533;-78
2024/02/17 09:53:01;;;;;;;4.35;2.60;;;;;;;;;;4976450;28;20038;-79
2024/02/17 09:55:27;;;;;;;9.30;5.85;;;;;;;;;;4956369;28;20411;-78
2024/02/17 09:57:52;;;;;;;6.32;3.90;;;;;;;;;;4954961;28;20454;-77
2024/02/17 10:00:18;;;;;;;7.10;4.32;;;;;;;;;;4970961;28;20042;-78
2024/02/17 10:02:44;;;;;;;13.30;7.65;;;;;;;;;;4970987;28;20491;-78
2024/02/17 10:05:10;;;;;;;4.60;3.03;;;;;;;;;;4948476;28;20046;-78
2024/02/17 10:07:48;;;;;;;4.50;3.67;;;;;;;;;;4962772;28;20038;-78
2024/02/17 10:10:14;;;;;;;16.77;9.52;;;;;;;;;;4968570;28;20049;-78
2024/02/17 10:12:51;;;;;;;8.57;6.03;;;;;;;;;;4974352;28;20034;-78
2024/02/17 10:15:19;;;;;;;10.27;5.82;;;;;;;;;;4970563;28;20059;-78
2024/02/17 10:17:44;;;;;;;13.52;8.10;;;;;;;;;;4980562;28;20093;-80
2024/02/17 10:20:11;;;;;;;7.45;4.40;;;;;;;;;;4964630;28;20038;-79
2024/02/17 10:22:37;;;;;;;9.07;5.50;;;;;;;;;;4981103;28;20138;-78
2024/02/17 10:25:03;;;;;;;12.90;9.23;;;;;;;;;;4977481;28;20038;-79
2024/02/17 10:27:28;;;;;;;9.35;6.30;;;;;;;;;;4979409;28;20054;-78
2024/02/17 10:30:14;;;;;;;3.72;2.97;;;;;;;;;;4974139;28;20078;-78
2024/02/17 10:32:40;;;;;;;8.63;5.40;;;;;;;;;;4974419;28;20537;-78
2024/02/17 10:35:07;;;;;;;14.07;7.63;;;;;;;;;;4973037;28;20518;-78
2024/02/17 10:37:35;;;;;;;4.45;2.72;;;;;;;;;;4974059;28;20039;-78
2024/02/17 10:40:03;;;;;;;7.10;4.25;;;;;;;;;;4978475;28;20093;-80
2024/02/17 10:42:29;;;;;;;6.30;3.08;;;;;;;;;;4977177;28;20116;-78
2024/02/17 10:44:56;;;;;;;8.20;3.72;;;;;;;;;;4957603;28;20043;-78
2024/02/17 10:47:26;;;;;;;9.43;5.13;;;;;;;;;;4971742;28;20030;-78
2024/02/17 10:50:03;;;;;;;9.43;5.13;;;;;;;;;;4951970;28;20046;-77
2024/02/17 10:52:30;;;;;;;5.88;2.17;;;;;;;;;;4957530;28;20043;-78
2024/02/17 10:55:04;;;;;;;10.30;5.07;;;;;;;;;;4969513;28;20042;-78
2024/02/17 10:57:36;;;;;;;10.15;4.55;;;;;;;;;;4962532;28;20046;-79
2024/02/17 11:00:03;;;;;;;10.13;4.53;;;;;;;;;;4954353;28;20118;-78
2024/02/17 11:02:29;;;;;;;8.30;5.03;;;;;;;;;;4970959;28;20107;-79
2024/02/17 11:04:56;;;;;;;9.45;5.40;;;;;;;;;;4952785;28;20048;-77
2024/02/17 11:07:21;;;;;;;11.55;5.90;;;;;;;;;;4968300;28;20125;-78
2024/02/17 11:09:47;;;;;;;9.43;4.88;;;;;;;;;;4970403;28;20019;-78
2024/02/17 11:12:32;;;;;;;8.98;5.78;;;;;;;;;;4950009;28;20030;-77
2024/02/17 11:15:10;;;;;;;11.43;6.18;;;;;;;;;;4967829;28;20065;-78
2024/02/17 11:17:40;;;;;;;9.30;5.40;;;;;;;;;;4970073;28;20023;-78
2024/02/17 11:20:15;;;;;;;12.52;6.35;;;;;;;;;;4978962;28;20031;-77
2024/02/17 11:22:50;;;;;;;7.25;4.40;;;;;;;;;;4969758;28;20086;-78
2024/02/17 11:25:33;;;;;;;13.10;5.47;;;;;;;;;;4951553;28;20417;-79
2024/02/17 11:27:59;;;;;;;9.93;5.97;;;;;;;;;;4967260;28;20027;-79
2024/02/17 11:30:25;;;;;;;10.45;5.90;;;;;;;;;;4951526;28;20311;-79
2024/02/17 11:32:58;;;;;;;7.75;4.80;;;;;;;;;;4969845;28;20090;-78
2024/02/17 11:35:25;;;;;;;4.88;3.42;;;;;;;;;;4969435;28;20030;-79
2024/02/17 11:37:53;;;;;;;11.05;6.43;;;;;;;;;;4970141;28;20031;-78
2024/02/17 11:40:20;;;;;;;15.95;8.82;;;;;;;;;;4968086;28;20027;-79
2024/02/17 11:42:46;;;;;;;12.10;6.72;;;;;;;;;;4969980;28;20022;-77
2024/02/17 11:45:14;;;;;;;8.30;5.47;;;;;;;;;;4969109;28;20519;-78
2024/02/17 11:47:39;;;;;;;5.95;3.65;;;;;;;;;;4968870;28;20038;-78
2024/02/17 11:50:12;;;;;;;8.63;4.45;;;;;;;;;;4969635;28;20030;-79
2024/02/17 11:52:40;;;;;;;8.40;4.80;;;;;;;;;;4969059;28;20034;-78
2024/02/17 11:55:07;;;;;;;9.00;5.00;;;;;;;;;;4965338;28;20037;-79
2024/02/17 11:57:35;;;;;;;3.83;2.65;;;;;;;;;;4968669;28;20034;-77
2024/02/17 12:00:01;;;;;;;9.00;4.93;;;;;;;;;;4968489;28;20076;-79
2024/02/17 12:02:31;;;;;;;6.38;3.95;;;;;;;;;;4969006;28;20037;-78
2024/02/17 12:04:56;;;;;;;5.43;3.80;;;;;;;;;;4968152;28;20038;-78
2024/02/17 12:07:21;;;;;;;5.90;3.42;;;;;;;;;;4951613;28;20023;-79
2024/02/17 12:09:50;;;;;;;5.47;3.60;;;;;;;;;;4969624;28;20031;-78
2024/02/17 12:12:15;;;;;;;5.90;4.25;;;;;;;;;;4968182;28;20106;-77
2024/02/17 12:14:41;;;;;;;3.55;2.40;;;;;;;;;;4967438;28;20163;-78
2024/02/17 12:17:08;;;;;;;5.32;4.00;;;;;;;;;;4951583;28;20022;-78
2024/02/17 12:19:34;;;;;;;7.65;3.95;;;;;;;;;;4969515;28;20026;-78
2024/02/17 12:22:00;;;;;;;5.03;2.85;;;;;;;;;;4959258;28;20026;-78
2024/02/17 12:24:26;;;;;;;8.93;3.90;;;;;;;;;;4968133;28;20506;-78
2024/02/17 12:26:53;;;;;;;7.93;4.63;;;;;;;;;;4966944;28;20034;-79
2024/02/17 12:29:18;;;;;;;6.63;4.05;;;;;;;;;;4968891;28;20030;-79
2024/02/17 12:31:46;;;;;;;3.05;2.17;;;;;;;;;;4967071;28;20026;-80
2024/02/17 12:34:29;;;;;;;4.45;3.28;;;;;;;;;;4965911;28;20037;-80
2024/02/17 12:36:58;;;;;;;10.27;7.07;;;;;;;;;;4965681;28;20034;-78
2024/02/17 12:39:25;;;;;;;7.85;3.85;;;;;;;;;;4964501;28;20391;-79
2024/02/17 12:42:03;;;;;;;7.90;3.92;;;;;;;;;;4969309;28;20027;-78
2024/02/17 12:44:29;;;;;;;3.22;2.22;;;;;;;;;;4966950;28;20403;-78
2024/02/17 12:46:55;;;;;;;5.88;4.38;;;;;;;;;;4967461;28;20041;-77
2024/02/17 12:49:24;;;;;;;3.50;2.58;;;;;;;;;;4968333;28;20049;-77
2024/02/17 12:51:53;;;;;;;4.95;3.25;;;;;;;;;;4948989;28;20035;-77
2024/02/17 12:54:18;;;;;;;2.17;1.60;;;;;;;;;;4950164;28;20634;-78
2024/02/17 12:56:47;;;;;;;4.95;3.38;;;;;;;;;;4968387;28;20122;-77
2024/02/17 12:59:13;;;;;;;4.20;2.58;;;;;;;;;;4946511;28;20081;-78
2024/02/17 13:01:38;;;;;;;7.35;4.28;;;;;;;;;;4969368;28;20084;-79
2024/02/17 13:04:04;;;;;;;8.43;4.68;;;;;;;;;;4967014;28;20030;-78
2024/02/17 13:06:29;;;;;;;7.57;4.90;;;;;;;;;;4968512;28;20029;-79
2024/02/17 13:08:57;;;;;;;8.15;5.38;;;;;;;;;;4949197;28;20038;-78
2024/02/17 13:11:23;;;;;;;6.68;3.90;;;;;;;;;;4967103;28;20045;-78
2024/02/17 13:13:48;;;;;;;3.90;2.47;;;;;;;;;;4967728;28;20054;-79
2024/02/17 13:16:14;;;;;;;3.85;3.15;;;;;;;;;;4966624;28;20114;-78
2024/02/17 13:18:39;;;;;;;7.70;5.55;;;;;;;;;;4954733;28;20031;-79
2024/02/17 13:21:05;;;;;;;6.90;3.97;;;;;;;;;;4969753;28;20023;-78
2024/02/17 13:23:30;;;;;;;3.38;2.53;;;;;;;;;;4968161;28;20034;-78
2024/02/17 13:25:55;;;;;;;6.47;3.38;;;;;;;;;;4972766;28;20027;-77
2024/02/17 13:28:21;;;;;;;6.97;4.20;;;;;;;;;;4966530;28;20383;-78
2024/02/17 13:30:46;;;;;;;3.00;2.67;;;;;;;;;;4972161;28;20046;-78
2024/02/17 13:33:13;;;;;;;3.85;2.97;;;;;;;;;;4969265;28;20348;-78
2024/02/17 13:35:43;;;;;;;4.70;2.10;;;;;;;;;;4971944;28;20547;-78
2024/02/17 13:38:08;;;;;;;6.32;3.22;;;;;;;;;;4959694;28;20086;-78
2024/02/17 13:40:34;;;;;;;2.60;1.90;;;;;;;;;;4967763;28;20027;-79
2024/02/17 13:42:59;;;;;;;4.75;3.17;;;;;;;;;;4968258;28;20019;-78
2024/02/17 13:45:25;;;;;;;3.75;2.30;;;;;;;;;;4967829;28;20034;-80
2024/02/17 13:47:50;;;;;;;6.97;3.55;;;;;;;;;;4953071;28;20065;-77
2024/02/17 13:50:17;;;;;;;6.15;3.10;;;;;;;;;;4965237;28;20031;-78
2024/02/17 13:52:43;;;;;;;8.57;5.22;;;;;;;;;;4971538;28;20022;-78
2024/02/17 13:55:10;;;;;;;28.00;11.32;;;;;;;;;;4969871;28;20518;-79
2024/02/17 13:57:35;;;;;;;9.38;5.63;;;;;;;;;;4953575;28;20188;-78
2024/02/17 14:00:03;;;;;;;2.67;2.22;;;;;;;;;;4968686;28;20030;-79
2024/02/17 14:02:29;;;;;;;5.68;3.28;;;;;;;;;;4972700;28;20652;-80
2024/02/17 14:04:55;;;;;;;4.45;3.42;;;;;;;;;;4974321;28;20097;-80
2024/02/17 14:07:22;;;;;;;4.82;3.60;;;;;;;;;;4992170;28;20050;-80
2024/02/17 14:09:48;;;;;;;7.13;4.30;;;;;;;;;;4986091;28;20119;-80
2024/02/17 14:12:17;;;;;;;4.80;3.13;;;;;;;;;;4988397;28;20023;-79
2024/02/17 14:14:43;;;;;;;6.28;3.50;;;;;;;;;;4988789;28;20026;-79
2024/02/17 14:17:08;;;;;;;4.55;3.08;;;;;;;;;;4986026;28;20026;-79
2024/02/17 14:19:37;;;;;;;6.90;4.55;;;;;;;;;;4982755;28;20046;-79
2024/02/17 14:22:06;;;;;;;4.43;2.78;;;;;;;;;;4987565;28;20022;-79
2024/02/17 14:24:33;;;;;;;6.72;4.32;;;;;;;;;;4986930;28;20095;-79
2024/02/17 14:26:59;;;;;;;6.75;3.80;;;;;;;;;;4986408;28;20359;-79
2024/02/17 14:29:28;;;;;;;3.65;2.80;;;;;;;;;;4984332;28;20015;-79
2024/02/17 14:31:53;;;;;;;4.63;3.50;;;;;;;;;;4967056;28;20039;-79
2024/02/17 14:34:19;;;;;;;3.38;2.47;;;;;;;;;;4967149;28;20488;-79
2024/02/17 14:36:44;;;;;;;2.45;1.80;;;;;;;;;;4986171;28;20058;-79